Spring Creek, South Dakota
Current Conditions -  °F | °C
As of 9:52 PM on Friday 24 Oct 2014 (Local Time) from KVTN Reporting Station
Clear Clear  
Wind Chill: 51°   Ceiling: Unl
Heat Index: 51°   Visibility: 10mi
Dew Point: 35°   Wind: 0mph
Humidity: 54%   Direction: NA
Pressure: 30.04"   Gusts: NA
Location:  43.1381°N, 100.965°W
Report Text: KVTN 250252Z AUTO 00000KT 10SM CLR 11/02 A3004 RMK AO2 SLP178 T01060017 51016
Loading
Personal Weather Stations






























Interactive Weather Map
Tropical Storm Tracking
New forecast layout! Learn more

10-Day Weather Forecast

Advertisements
Track Severe Weather on mobile